Time;durP1;ratioP1;P1;durP2;ratioP2;P2;SDS_P1;SDS_P2;PMS_P1;PMS_P2;Temp;Humidity;BMP_temperature;BMP_pressure;BME280_temperature;BME280_humidity;BME280_pressure;Samples;Min_cycle;Max_cycle;Signal;HPM_P1;HPM_P2
2022/11/08 00:01:41;;;;;;;8.77;3.33;;;;;;;19.73;55.15;100878.50;5029289;28;20094;-59
2022/11/08 00:04:09;;;;;;;10.23;3.72;;;;;;;19.72;55.40;100882.22;5043502;28;20112;-58
2022/11/08 00:14:47;;;;;;;8.63;3.92;;;;;;;19.66;55.11;100871.28;5028814;28;20037;-59
2022/11/08 00:17:15;;;;;;;8.50;3.35;;;;;;;19.70;55.05;100878.84;5038718;28;20033;-61
2022/11/08 00:19:41;;;;;;;5.43;2.53;;;;;;;19.71;55.24;100887.81;5042540;28;20094;-59
2022/11/08 00:22:07;;;;;;;8.45;3.17;;;;;;;19.70;55.27;100872.63;5042421;28;20109;-58
2022/11/08 00:24:33;;;;;;;10.10;3.63;;;;;;;19.68;55.24;100878.19;5042522;28;20037;-58
2022/11/08 00:26:59;;;;;;;8.77;3.70;;;;;;;19.44;55.26;100844.03;5043268;28;20198;-59
2022/11/08 00:29:24;;;;;;;10.68;3.72;;;;;;;19.67;55.04;100873.00;5042557;28;20533;-58
2022/11/08 00:31:50;;;;;;;6.60;3.10;;;;;;;19.56;55.31;100849.88;5042498;28;20071;-59
2022/11/08 00:34:15;;;;;;;6.90;3.15;;;;;;;19.66;55.01;100874.81;5042662;28;20021;-59
2022/11/08 00:36:40;;;;;;;7.70;3.53;;;;;;;19.66;54.85;100872.13;5042313;28;20028;-59
2022/11/08 00:39:06;;;;;;;6.45;2.90;;;;;;;19.66;54.93;100863.19;5038171;28;20056;-59
2022/11/08 00:41:31;;;;;;;7.22;3.15;;;;;;;19.65;55.25;100859.66;5042640;28;20025;-60
2022/11/08 00:43:56;;;;;;;6.70;2.80;;;;;;;19.66;54.85;100868.59;5042574;28;20021;-59
2022/11/08 00:46:22;;;;;;;7.55;2.95;;;;;;;19.64;55.11;100860.69;5046244;28;20047;-59
2022/11/08 00:48:47;;;;;;;6.45;2.80;;;;;;;19.64;55.22;100858.00;5046810;28;20033;-59
2022/11/08 00:51:12;;;;;;;7.10;3.15;;;;;;;19.64;54.86;100863.38;5046635;28;20037;-60
2022/11/08 00:53:39;;;;;;;8.30;3.42;;;;;;;19.64;54.83;100862.53;5045744;28;20110;-59
2022/11/08 00:56:06;;;;;;;5.78;3.03;;;;;;;19.63;55.27;100863.56;5046736;28;20034;-60
2022/11/08 00:58:31;;;;;;;8.38;3.55;;;;;;;19.55;55.13;100847.38;5046426;28;20021;-59
2022/11/08 01:00:57;;;;;;;6.32;3.15;;;;;;;19.61;55.09;100863.72;5046501;28;20052;-60
2022/11/08 01:03:23;;;;;;;7.95;2.80;;;;;;;19.58;55.09;100855.09;5032383;28;20044;-60
2022/11/08 01:05:52;;;;;;;8.43;3.95;;;;;;;19.60;55.23;100863.88;5045711;28;20029;-60
2022/11/08 01:08:18;;;;;;;6.85;2.40;;;;;;;19.60;55.15;100858.47;5046565;28;20032;-60
2022/11/08 01:10:46;;;;;;;6.35;2.60;;;;;;;19.59;55.05;100862.19;5056607;28;20056;-60
2022/11/08 01:13:12;;;;;;;6.45;2.67;;;;;;;19.59;55.18;100857.63;5047957;28;20032;-60
2022/11/08 01:15:40;;;;;;;7.07;2.95;;;;;;;19.60;54.75;100863.88;5042880;28;20056;-61
2022/11/08 01:18:06;;;;;;;6.32;3.15;;;;;;;19.59;55.05;100862.19;5041779;28;20053;-59
2022/11/08 01:20:32;;;;;;;7.07;2.70;;;;;;;19.57;54.91;100865.06;5046052;28;20423;-60
2022/11/08 01:22:58;;;;;;;5.82;2.83;;;;;;;19.58;55.04;100857.78;5045458;28;20037;-59
2022/11/08 01:25:23;;;;;;;5.05;2.67;;;;;;;19.57;54.75;100859.66;5046368;28;20026;-60
2022/11/08 01:27:48;;;;;;;6.40;2.70;;;;;;;19.57;55.06;100866.91;5045561;28;20022;-59
2022/11/08 01:30:13;;;;;;;7.30;3.45;;;;;;;19.56;55.14;100863.38;5045916;28;20466;-60
2022/11/08 01:32:39;;;;;;;9.98;3.28;;;;;;;19.56;54.75;100862.53;5045760;28;20017;-60
2022/11/08 01:35:04;;;;;;;6.28;2.90;;;;;;;19.55;54.87;100860.88;5045190;28;20025;-60
2022/11/08 01:37:30;;;;;;;6.00;2.50;;;;;;;19.55;54.92;100860.88;5045570;28;20109;-60
2022/11/08 01:39:55;;;;;;;7.75;3.13;;;;;;;19.54;55.11;100856.47;5045664;28;20025;-60
2022/11/08 01:42:31;;;;;;;6.57;3.30;;;;;;;19.53;55.13;100855.63;5045731;28;20143;-60
2022/11/08 01:45:02;;;;;;;6.78;2.67;;;;;;;19.54;54.68;100859.16;5045378;28;20021;-58
2022/11/08 01:47:27;;;;;;;6.65;2.85;;;;;;;19.53;54.68;100846.69;5045538;28;20033;-59
2022/11/08 01:49:56;;;;;;;5.22;2.45;;;;;;;19.52;54.96;100845.03;5045155;28;20036;-58
2022/11/08 01:52:35;;;;;;;5.43;2.53;;;;;;;19.51;54.83;100846.03;5044805;28;20029;-57
2022/11/08 01:55:00;;;;;;;4.72;2.40;;;;;;;19.51;54.97;100832.56;5032007;28;20051;-59
2022/11/08 01:57:42;;;;;;;5.13;2.45;;;;;;;19.50;54.96;100839.81;5032116;28;20061;-60
2022/11/08 02:00:11;;;;;;;6.05;2.58;;;;;;;19.20;54.98;100784.81;5032621;28;20043;-59
2022/11/08 02:02:36;;;;;;;;;;;;;;;19.50;54.77;100823.63;5028223;28;20081;-59
2022/11/08 02:05:03;;;;;;;6.97;2.80;;;;;;;19.43;54.70;100814.56;5045096;28;19966;-58
2022/11/08 02:07:29;;;;;;;4.80;2.40;;;;;;;19.47;54.74;100827.50;5027190;28;20048;-60
2022/11/08 02:09:54;;;;;;;6.80;2.58;;;;;;;19.29;54.77;100791.88;5041135;28;20022;-58
2022/11/08 02:12:20;;;;;;;5.10;2.28;;;;;;;19.45;54.71;100809.81;5035350;28;20496;-59
2022/11/08 02:14:45;;;;;;;6.43;3.15;;;;;;;19.46;55.07;100809.66;5013123;28;20059;-59
2022/11/08 02:17:11;;;;;;;5.80;2.50;;;;;;;19.44;55.09;100808.97;5045447;28;20034;-59
2022/11/08 02:19:40;;;;;;;5.68;2.40;;;;;;;19.45;54.76;100801.72;5044513;28;20029;-59
2022/11/08 02:22:13;;;;;;;6.15;2.58;;;;;;;19.45;55.13;100801.72;5013121;28;20512;-59
2022/11/08 02:24:38;;;;;;;7.18;3.08;;;;;;;19.44;54.87;100792.78;5045074;28;20030;-59
2022/11/08 02:27:04;;;;;;;6.05;2.20;;;;;;;19.43;55.06;100798.38;5044943;28;20096;-59
2022/11/08 02:29:35;;;;;;;6.35;2.33;;;;;;;19.41;54.61;100786.91;5044492;28;20041;-59
2022/11/08 02:32:02;;;;;;;5.50;2.20;;;;;;;19.42;54.77;100784.06;5044335;28;20017;-59
2022/11/08 02:34:34;;;;;;;4.68;2.30;;;;;;;19.41;54.95;100785.09;5044538;28;20040;-59
2022/11/08 02:37:01;;;;;;;5.00;2.75;;;;;;;19.35;54.93;100766.06;5026426;28;20052;-60
2022/11/08 02:39:27;;;;;;;4.70;2.38;;;;;;;19.35;55.08;100766.88;5044484;28;20045;-60
2022/11/08 02:41:53;;;;;;;6.05;2.35;;;;;;;19.40;54.80;100774.44;5044527;28;20029;-60
2022/11/08 02:44:18;;;;;;;5.38;2.20;;;;;;;19.38;54.92;100771.94;5042404;28;20036;-60
2022/11/08 02:46:43;;;;;;;5.53;2.25;;;;;;;19.39;54.71;100770.91;5044502;28;20087;-60
2022/11/08 02:49:09;;;;;;;4.60;2.35;;;;;;;19.39;54.40;100773.63;5035976;28;20033;-60
2022/11/08 02:51:34;;;;;;;6.25;2.53;;;;;;;19.38;54.93;100771.09;5044073;28;20025;-59
2022/11/08 02:53:59;;;;;;;5.32;2.17;;;;;;;19.38;55.07;100769.25;5044176;28;20513;-60
2022/11/08 02:56:24;;;;;;;6.05;2.30;;;;;;;19.38;54.53;100758.47;5044394;28;20028;-59
2022/11/08 02:58:49;;;;;;;4.22;2.28;;;;;;;19.37;54.62;100769.41;5044990;28;20052;-60
2022/11/08 03:01:15;;;;;;;4.13;2.28;;;;;;;19.34;54.95;100759.81;5043803;28;20081;-60
2022/11/08 03:03:40;;;;;;;4.85;2.22;;;;;;;19.37;55.01;100759.47;5044236;28;20057;-59
2022/11/08 03:06:05;;;;;;;4.78;1.92;;;;;;;19.35;54.61;100750.72;5043675;28;20033;-60
2022/11/08 03:08:31;;;;;;;5.85;2.40;;;;;;;19.35;54.83;100744.47;5043286;28;20039;-60
2022/11/08 03:10:58;;;;;;;4.65;2.13;;;;;;;19.34;54.81;100756.28;5044291;28;20055;-60
2022/11/08 03:13:24;;;;;;;5.70;2.20;;;;;;;19.33;54.81;100747.38;5034711;28;20595;-60
2022/11/08 03:15:49;;;;;;;3.70;1.85;;;;;;;19.33;54.61;100744.66;5044066;28;20453;-59
2022/11/08 03:18:14;;;;;;;4.80;1.98;;;;;;;19.33;54.81;100743.84;5043707;28;20406;-60
2022/11/08 03:20:39;;;;;;;5.05;2.33;;;;;;;19.32;54.57;100742.13;5026028;28;20068;-60
2022/11/08 03:23:05;;;;;;;3.47;2.10;;;;;;;19.29;54.70;100737.13;5043387;28;20036;-60
2022/11/08 03:25:31;;;;;;;7.28;2.08;;;;;;;19.30;54.97;100731.53;5044402;28;20021;-59
2022/11/08 03:28:05;;;;;;;5.90;2.78;;;;;;;19.30;54.84;100736.94;5026400;28;20029;-59
2022/11/08 03:30:30;;;;;;;4.47;2.00;;;;;;;19.31;54.79;100732.38;5043173;28;20124;-60
2022/11/08 03:32:55;;;;;;;4.43;2.28;;;;;;;19.30;55.09;100726.16;5043822;28;20064;-60
2022/11/08 03:35:21;;;;;;;3.95;2.13;;;;;;;19.29;54.61;100731.72;5042810;28;20037;-59
2022/11/08 03:37:53;;;;;;;3.63;1.92;;;;;;;19.29;54.78;100723.63;5043358;28;20099;-59
2022/11/08 03:40:19;;;;;;;4.40;2.30;;;;;;;19.25;54.86;100717.75;5041347;28;20037;-59
2022/11/08 03:42:44;;;;;;;2.22;1.45;;;;;;;19.29;55.00;100715.56;5033869;28;20109;-59
2022/11/08 03:45:10;;;;;;;3.47;2.00;;;;;;;19.28;54.81;100719.22;5042999;28;20037;-59
2022/11/08 03:47:37;;;;;;;3.90;1.80;;;;;;;19.23;54.72;100709.81;5043167;28;20013;-59
2022/11/08 03:50:04;;;;;;;4.43;1.77;;;;;;;19.24;54.69;100710.66;5031253;28;20429;-59
2022/11/08 03:52:29;;;;;;;3.63;1.77;;;;;;;19.23;54.64;100706.28;5040767;28;20112;-59
2022/11/08 03:54:55;;;;;;;3.80;1.90;;;;;;;19.27;54.81;100714.88;5043322;28;20032;-59
2022/11/08 03:57:20;;;;;;;4.85;1.63;;;;;;;19.27;54.53;100699.53;5043380;28;20033;-60
2022/11/08 03:59:45;;;;;;;5.10;2.10;;;;;;;19.26;54.67;100705.09;5049408;28;20035;-60
2022/11/08 04:02:10;;;;;;;4.60;2.00;;;;;;;19.25;54.89;100701.56;5050599;28;20048;-60
2022/11/08 04:04:36;;;;;;;3.20;1.73;;;;;;;19.25;54.75;100698.03;5042725;28;20417;-60
2022/11/08 04:07:01;;;;;;;5.75;2.10;;;;;;;19.24;54.62;100691.78;5042464;28;20029;-60
2022/11/08 04:09:26;;;;;;;3.95;1.70;;;;;;;19.20;54.86;100677.84;5043280;28;20037;-60
2022/11/08 04:21:17;;;;;;;2.92;1.40;;;;;;;19.24;54.44;100664.84;5034297;28;20037;-60
2022/11/08 04:22:49;;;;;;;4.93;1.80;;;;;;;19.19;54.57;100651.88;5042214;28;20477;-59
2022/11/08 04:25:14;;;;;;;2.83;1.63;;;;;;;19.21;54.75;100643.66;5043394;28;20025;-59
2022/11/08 04:27:39;;;;;;;5.50;1.80;;;;;;;19.20;54.65;100637.41;5042634;28;20745;-59
2022/11/08 04:30:05;;;;;;;3.45;2.10;;;;;;;19.20;54.53;100636.59;5042921;28;20044;-59
2022/11/08 04:32:30;;;;;;;4.72;1.52;;;;;;;19.20;54.77;100629.34;5042923;28;20034;-59
2022/11/08 04:34:55;;;;;;;3.35;1.73;;;;;;;19.18;54.81;100625.97;5041746;28;20089;-58
2022/11/08 04:37:21;;;;;;;4.15;1.70;;;;;;;19.19;54.79;100618.72;5042254;28;20025;-59
2022/11/08 04:39:46;;;;;;;3.45;1.60;;;;;;;19.17;54.68;100612.69;5042551;28;20037;-59
2022/11/08 04:42:11;;;;;;;3.55;1.55;;;;;;;19.19;54.52;100605.25;5043803;28;20051;-58
2022/11/08 04:44:36;;;;;;;2.88;1.70;;;;;;;19.18;54.83;100599.00;5041563;28;20427;-57
2022/11/08 04:47:02;;;;;;;2.53;1.35;;;;;;;19.18;54.84;100608.97;5042260;28;20033;-58
2022/11/08 04:49:27;;;;;;;3.65;1.55;;;;;;;19.18;54.86;100603.56;5041771;28;20049;-58
2022/11/08 04:51:52;;;;;;;2.72;1.48;;;;;;;19.18;54.90;100611.66;5036012;28;20062;-59
2022/11/08 04:54:17;;;;;;;2.92;1.63;;;;;;;19.17;54.42;100600.03;5041425;28;20044;-57
2022/11/08 04:56:43;;;;;;;3.35;1.60;;;;;;;19.17;54.95;100594.66;5041782;28;20574;-59
2022/11/08 04:59:08;;;;;;;2.13;1.65;;;;;;;19.17;54.73;100597.34;5042073;28;20063;-59
2022/11/08 05:01:34;;;;;;;3.58;1.67;;;;;;;19.16;54.82;100592.97;5041521;28;20064;-59
2022/11/08 05:03:59;;;;;;;3.63;1.75;;;;;;;19.10;54.66;100582.88;5041868;28;20052;-59
2022/11/08 05:06:26;;;;;;;3.75;1.45;;;;;;;19.16;54.71;100587.59;5041121;28;20077;-60
2022/11/08 05:08:53;;;;;;;2.33;1.50;;;;;;;19.17;54.65;100585.72;5041277;28;20064;-60
2022/11/08 05:11:20;;;;;;;3.47;1.58;;;;;;;19.16;54.79;100587.59;5042050;28;20088;-59
2022/11/08 05:13:46;;;;;;;4.22;1.75;;;;;;;19.16;54.61;100584.88;5041266;28;20029;-60
2022/11/08 05:16:31;;;;;;;3.38;1.80;;;;;;;19.16;54.61;100584.06;5042403;28;20017;-59
2022/11/08 05:18:57;;;;;;;3.90;1.67;;;;;;;19.15;54.93;100585.88;5042516;28;20026;-59
2022/11/08 05:24:10;;;;;;;3.17;1.50;;;;;;;19.16;54.73;100589.44;5041712;28;20047;-59
2022/11/08 05:26:39;;;;;;;3.43;1.40;;;;;;;19.16;54.95;100589.44;5041583;28;20025;-59
2022/11/08 05:29:04;;;;;;;3.70;1.85;;;;;;;19.13;54.81;100584.41;5042109;28;20350;-58
2022/11/08 05:31:30;;;;;;;3.20;1.40;;;;;;;19.15;55.13;100577.81;5043275;28;20037;-60
2022/11/08 05:33:55;;;;;;;4.22;1.60;;;;;;;19.15;55.08;100569.72;5045191;28;20022;-60
2022/11/08 05:36:21;;;;;;;3.50;1.60;;;;;;;19.15;55.15;100558.94;5042584;28;20034;-60
2022/11/08 05:38:46;;;;;;;2.35;1.25;;;;;;;19.12;55.05;100548.53;5044493;28;20037;-59
2022/11/08 05:41:14;;;;;;;3.28;1.33;;;;;;;19.15;54.90;100544.63;5045136;28;20123;-59
2022/11/08 05:43:40;;;;;;;2.35;1.52;;;;;;;19.15;55.01;100539.22;5045369;28;20063;-59
2022/11/08 05:46:06;;;;;;;3.13;1.80;;;;;;;19.15;54.93;100533.84;5045538;28;20053;-60
2022/11/08 05:48:32;;;;;;;2.63;1.60;;;;;;;19.14;54.88;100541.09;5045643;28;20616;-60
2022/11/08 05:50:57;;;;;;;2.60;1.50;;;;;;;19.15;55.28;100523.06;5045231;28;20053;-59
2022/11/08 05:53:22;;;;;;;1.85;1.55;;;;;;;19.13;54.94;100527.81;5043476;28;20466;-59
2022/11/08 05:55:47;;;;;;;2.47;1.50;;;;;;;19.14;55.25;100530.31;5044554;28;20033;-60
2022/11/08 05:58:13;;;;;;;1.83;1.30;;;;;;;19.15;55.27;100528.44;5045218;28;20041;-59
2022/11/08 06:00:38;;;;;;;3.25;1.50;;;;;;;19.15;55.26;100536.53;5044249;28;20040;-60
2022/11/08 06:03:04;;;;;;;4.70;1.45;;;;;;;19.14;55.07;100530.31;5041878;28;20063;-59
2022/11/08 06:05:30;;;;;;;3.60;1.50;;;;;;;19.14;54.95;100519.53;5042885;28;20041;-58
2022/11/08 06:07:55;;;;;;;2.80;1.50;;;;;;;19.15;55.02;100517.69;5040684;28;20044;-58
2022/11/08 06:10:21;;;;;;;2.63;1.52;;;;;;;19.13;55.18;100517.88;5042150;28;20013;-58
2022/11/08 06:12:46;;;;;;;1.88;1.25;;;;;;;19.06;55.37;100500.72;5044521;28;20030;-59
2022/11/08 06:15:11;;;;;;;2.97;1.35;;;;;;;19.18;55.26;100506.53;5042633;28;20025;-59
2022/11/08 06:17:37;;;;;;;2.47;1.48;;;;;;;19.23;55.24;100502.28;5044054;28;20028;-60
2022/11/08 06:20:03;;;;;;;2.92;1.40;;;;;;;19.31;54.85;100504.06;5025535;28;20026;-60
2022/11/08 06:22:30;;;;;;;3.72;1.40;;;;;;;19.37;54.79;100510.59;5042639;28;20029;-59
2022/11/08 06:24:55;;;;;;;2.60;1.38;;;;;;;19.43;54.75;100501.78;5045041;28;20889;-59
2022/11/08 06:27:21;;;;;;;2.40;1.20;;;;;;;19.35;54.62;100485.69;5044279;28;20056;-60
2022/11/08 06:29:46;;;;;;;4.05;1.42;;;;;;;19.53;54.32;100506.94;5043486;28;20056;-60
2022/11/08 06:32:11;;;;;;;2.17;1.20;;;;;;;19.56;54.46;100517.34;5044206;28;20025;-59
2022/11/08 06:34:37;;;;;;;2.35;1.25;;;;;;;19.56;54.30;100506.56;5032216;28;20041;-60
2022/11/08 06:37:03;;;;;;;3.03;1.30;;;;;;;19.61;54.32;100518.50;5043351;28;20048;-59
2022/11/08 06:39:29;;;;;;;2.17;1.35;;;;;;;19.64;54.39;100504.66;5042646;28;20107;-60
2022/11/08 06:41:54;;;;;;;3.17;1.40;;;;;;;19.67;54.21;100522.34;5042040;28;20033;-59
2022/11/08 06:44:19;;;;;;;3.28;1.23;;;;;;;19.69;53.97;100521.13;5044149;28;20144;-59
2022/11/08 06:46:44;;;;;;;1.63;1.15;;;;;;;19.72;54.17;100525.34;5043108;28;20033;-59
2022/11/08 06:49:09;;;;;;;4.63;1.30;;;;;;;19.75;54.15;100533.03;5043343;28;20025;-59
2022/11/08 06:51:35;;;;;;;5.15;1.45;;;;;;;19.65;53.97;100518.97;5043027;28;20026;-59
2022/11/08 06:54:02;;;;;;;4.40;1.95;;;;;;;19.76;53.99;100537.44;5043060;28;20465;-59
2022/11/08 06:56:27;;;;;;;3.58;1.50;;;;;;;19.67;54.07;100538.53;5044287;28;20021;-60
2022/11/08 06:58:52;;;;;;;1.95;1.10;;;;;;;19.76;54.08;100547.38;5043051;28;20536;-60
2022/11/08 07:01:18;;;;;;;2.72;1.52;;;;;;;19.75;54.08;100541.13;5043752;28;20057;-59
2022/11/08 07:03:43;;;;;;;2.78;0.98;;;;;;;19.76;53.73;100547.38;5043635;28;20021;-60
2022/11/08 07:06:08;;;;;;;2.42;1.30;;;;;;;19.77;53.74;100547.19;5042552;28;20033;-59
2022/11/08 07:08:34;;;;;;;3.42;1.42;;;;;;;19.77;54.08;100538.28;5040582;28;20453;-59
2022/11/08 07:10:59;;;;;;;2.60;1.08;;;;;;;19.78;53.75;100534.53;5042975;28;20049;-59
2022/11/08 07:13:25;;;;;;;1.98;1.33;;;;;;;19.78;53.43;100531.84;5043328;28;20025;-59
2022/11/08 07:15:50;;;;;;;3.83;1.63;;;;;;;19.79;53.94;100526.25;5041642;28;20034;-60
2022/11/08 07:18:17;;;;;;;2.25;1.10;;;;;;;19.79;53.71;100534.34;5039678;28;20026;-60
2022/11/08 07:20:42;;;;;;;3.20;1.40;;;;;;;19.77;53.93;100525.63;5044019;28;20025;-59
2022/11/08 07:23:09;;;;;;;2.40;1.20;;;;;;;19.73;53.94;100525.13;5042674;28;20028;-60
2022/11/08 07:25:35;;;;;;;3.03;1.30;;;;;;;19.60;53.90;100518.66;5044026;28;20168;-60
2022/11/08 07:28:05;;;;;;;2.83;1.40;;;;;;;19.62;53.84;100522.03;5043390;28;20048;-59
2022/11/08 07:30:30;;;;;;;2.35;1.35;;;;;;;19.56;54.20;100520.88;5043744;28;20021;-60
2022/11/08 07:32:56;;;;;;;4.20;1.20;;;;;;;19.53;54.06;100528.50;5042999;28;20059;-59
2022/11/08 07:35:23;;;;;;;3.78;1.33;;;;;;;19.49;54.01;100514.53;5035526;28;20025;-58
2022/11/08 07:37:48;;;;;;;2.50;1.60;;;;;;;19.46;54.32;100513.06;5050833;28;20051;-59
2022/11/08 07:40:14;;;;;;;3.63;1.70;;;;;;;19.43;54.42;100505.31;5035149;28;20108;-59
2022/11/08 07:42:40;;;;;;;4.50;1.10;;;;;;;19.33;54.54;100488.56;5044674;28;20030;-58
2022/11/08 07:45:06;;;;;;;3.70;1.10;;;;;;;19.38;54.61;100507.72;5042484;28;20040;-58
2022/11/08 07:47:32;;;;;;;2.25;1.20;;;;;;;19.38;54.15;100506.91;5042657;28;20382;-58
2022/11/08 07:49:57;;;;;;;2.58;1.08;;;;;;;19.37;54.58;100518.69;5042562;28;20029;-57
2022/11/08 07:52:22;;;;;;;2.75;1.10;;;;;;;19.34;54.34;100494.81;5042422;28;20118;-58
2022/11/08 07:54:48;;;;;;;2.90;1.27;;;;;;;19.32;54.45;100494.13;5043173;28;20045;-58
2022/11/08 07:57:13;;;;;;;3.83;1.65;;;;;;;19.40;54.40;100496.75;5042846;28;20029;-59
2022/11/08 07:59:38;;;;;;;2.97;1.35;;;;;;;19.43;54.23;100499.09;5043083;28;20024;-59
2022/11/08 08:02:04;;;;;;;3.13;1.23;;;;;;;19.43;54.12;100499.94;5043063;28;20429;-59
2022/11/08 08:04:29;;;;;;;3.35;1.27;;;;;;;19.47;54.02;100497.72;5042168;28;20066;-57
2022/11/08 08:06:55;;;;;;;4.15;1.58;;;;;;;19.46;54.23;100488.78;5033969;28;20029;-55
2022/11/08 08:09:20;;;;;;;2.28;1.15;;;;;;;19.51;54.32;100492.81;5039205;28;20033;-58
2022/11/08 08:11:45;;;;;;;3.95;1.35;;;;;;;19.47;54.54;100482.38;5040908;28;20221;-59
2022/11/08 08:14:11;;;;;;;3.88;1.02;;;;;;;19.50;54.42;100491.97;5032034;28;20035;-57
2022/11/08 08:16:36;;;;;;;2.38;1.20;;;;;;;19.49;54.64;100487.56;5033369;28;20026;-57
2022/11/08 08:19:02;;;;;;;2.40;1.08;;;;;;;19.47;54.38;100478.84;5040915;28;20367;-58
2022/11/08 08:21:27;;;;;;;4.30;1.17;;;;;;;19.47;54.40;100478.84;5039537;28;20028;-59
2022/11/08 08:23:52;;;;;;;2.22;1.20;;;;;;;19.48;54.41;100472.44;5040655;28;20021;-59
2022/11/08 08:26:18;;;;;;;2.95;1.10;;;;;;;19.44;54.25;100463.03;5030857;28;20033;-59
2022/11/08 08:28:43;;;;;;;7.63;1.50;;;;;;;19.45;54.28;100480.88;5043002;28;20034;-59
2022/11/08 08:31:08;;;;;;;2.15;1.10;;;;;;;19.45;54.53;100464.69;5042082;28;20025;-60
2022/11/08 08:33:33;;;;;;;2.25;1.30;;;;;;;19.38;54.58;100458.38;5039391;28;20056;-59
2022/11/08 08:36:02;;;;;;;3.65;1.05;;;;;;;19.37;54.21;100452.16;5039999;28;20088;-57
2022/11/08 08:38:32;;;;;;;2.80;1.20;;;;;;;19.43;54.52;100474.84;5040351;28;20041;-58
2022/11/08 08:40:57;;;;;;;2.92;1.20;;;;;;;19.44;54.46;100480.03;5038414;28;20025;-54
2022/11/08 08:43:23;;;;;;;4.13;1.38;;;;;;;19.44;54.37;100485.44;5033936;28;20064;-57
2022/11/08 08:45:48;;;;;;;2.47;1.05;;;;;;;19.46;54.04;100490.66;5040503;28;20048;-58
2022/11/08 08:48:14;;;;;;;2.88;1.42;;;;;;;19.39;54.28;100477.06;5050001;28;20021;-59
2022/11/08 08:50:39;;;;;;;4.00;1.27;;;;;;;19.47;54.29;100490.47;5041413;28;20059;-57
2022/11/08 08:53:04;;;;;;;2.72;1.38;;;;;;;19.48;54.23;100494.81;5041706;28;20499;-57
2022/11/08 08:55:30;;;;;;;2.40;1.08;;;;;;;19.49;54.19;100495.66;5041297;28;20051;-57
2022/11/08 08:57:56;;;;;;;3.67;1.13;;;;;;;19.46;54.03;100479.88;5041813;28;20025;-58
2022/11/08 09:00:21;;;;;;;2.28;1.20;;;;;;;19.49;54.20;100499.19;5041644;28;20075;-57
2022/11/08 09:02:47;;;;;;;4.68;1.50;;;;;;;19.51;54.05;100487.41;5041807;28;20029;-54
2022/11/08 09:05:13;;;;;;;1.85;0.98;;;;;;;19.51;53.91;100490.09;5041745;28;20032;-56
2022/11/08 09:07:39;;;;;;;2.83;1.25;;;;;;;19.50;54.11;100486.56;5024958;28;20048;-55
2022/11/08 09:10:05;;;;;;;2.50;0.90;;;;;;;19.49;53.57;100491.09;5041736;28;20468;-58
2022/11/08 09:12:31;;;;;;;2.28;1.13;;;;;;;19.37;53.77;100476.41;5037777;28;20033;-58
2022/11/08 09:14:56;;;;;;;3.92;1.48;;;;;;;19.51;54.03;100503.59;5038296;28;20048;-58
2022/11/08 09:17:21;;;;;;;3.58;1.25;;;;;;;19.50;53.74;100489.28;5032413;28;20029;-58
2022/11/08 09:19:47;;;;;;;2.53;1.20;;;;;;;19.49;53.79;100485.72;5032022;28;20025;-57
2022/11/08 09:22:12;;;;;;;4.28;1.17;;;;;;;19.49;54.15;100495.66;5035348;28;20025;-58
2022/11/08 09:24:38;;;;;;;2.30;0.98;;;;;;;19.51;54.24;100484.72;5032168;28;20029;-59
2022/11/08 09:27:03;;;;;;;3.28;1.23;;;;;;;19.49;54.47;100491.09;5030410;28;20407;-58
2022/11/08 09:29:32;;;;;;;3.30;1.30;;;;;;;19.48;54.36;100492.13;5031677;28;20034;-59
2022/11/08 09:31:58;;;;;;;4.10;1.27;;;;;;;19.48;54.33;100485.91;5032285;28;20080;-60
2022/11/08 09:34:23;;;;;;;2.75;1.20;;;;;;;19.48;54.12;100484.03;5030425;28;20045;-60
2022/11/08 09:36:49;;;;;;;2.70;1.08;;;;;;;19.47;54.77;100495.84;5030838;28;21012;-56
2022/11/08 09:39:15;;;;;;;3.28;1.20;;;;;;;19.48;54.51;100473.25;5011621;28;20453;-55
2022/11/08 09:42:12;;;;;;;1.52;1.10;;;;;;;19.48;54.74;100467.88;5033421;28;20901;-56
2022/11/08 09:44:50;;;;;;;2.50;1.10;;;;;;;19.47;54.34;100443.78;5030232;28;20040;-59
2022/11/08 09:47:22;;;;;;;4.53;1.40;;;;;;;19.47;54.33;100435.69;5038466;28;20113;-59
2022/11/08 09:50:03;;;;;;;2.33;1.10;;;;;;;19.47;54.50;100450.03;5030298;28;20167;-59
2022/11/08 09:52:30;;;;;;;1.83;1.20;;;;;;;19.47;54.31;100446.50;4990311;28;20103;-59
2022/11/08 09:55:32;;;;;;;4.30;1.33;;;;;;;19.48;54.12;100467.88;5013658;28;20025;-59
2022/11/08 09:58:19;;;;;;;3.65;1.83;;;;;;;19.51;54.42;100455.06;5006260;28;20025;-58
2022/11/08 10:00:45;;;;;;;3.17;1.30;;;;;;;19.54;54.35;100460.91;5038350;28;20059;-58
2022/11/08 10:03:14;;;;;;;3.55;1.88;;;;;;;19.56;54.28;100449.94;5020289;28;20030;-59
2022/11/08 10:05:53;;;;;;;3.53;1.20;;;;;;;19.55;54.19;100449.09;5037628;28;20021;-59
2022/11/08 10:09:03;;;;;;;3.38;1.02;;;;;;;19.57;54.15;100449.75;5019685;28;20025;-59
2022/11/08 10:11:48;;;;;;;3.25;1.40;;;;;;;19.58;53.85;100461.38;5019537;28;20033;-60
2022/11/08 10:14:27;;;;;;;1.95;1.13;;;;;;;19.57;54.09;100459.69;5020098;28;20044;-59
2022/11/08 10:17:03;;;;;;;1.98;1.17;;;;;;;19.53;53.64;100450.31;5037943;28;20036;-59
2022/11/08 10:19:56;;;;;;;3.08;1.15;;;;;;;19.56;53.93;100453.47;5019686;28;20029;-58
2022/11/08 10:22:40;;;;;;;2.55;1.15;;;;;;;19.58;53.89;100464.06;5037277;28;20205;-59
2022/11/08 10:25:17;;;;;;;3.25;1.48;;;;;;;19.59;53.82;100471.16;5037821;28;20044;-60
2022/11/08 10:27:43;;;;;;;2.17;1.17;;;;;;;19.61;53.38;100472.66;5003882;28;20032;-58
2022/11/08 10:30:20;;;;;;;1.95;1.17;;;;;;;19.64;53.37;100466.06;5037823;28;20029;-58
2022/11/08 10:32:55;;;;;;;1.95;1.10;;;;;;;19.65;53.36;100460.50;5019463;28;20029;-56
2022/11/08 10:35:44;;;;;;;2.70;1.42;;;;;;;19.65;53.42;100456.94;5036777;28;20044;-60
2022/11/08 10:38:17;;;;;;;1.77;1.20;;;;;;;19.64;53.49;100461.50;5018910;28;20053;-59
2022/11/08 10:41:14;;;;;;;1.83;1.05;;;;;;;19.64;53.13;100441.81;5032266;28;20097;-59
2022/11/08 10:43:40;;;;;;;3.03;1.25;;;;;;;19.64;53.38;100439.94;5036862;28;20029;-53
2022/11/08 10:46:17;;;;;;;1.98;1.10;;;;;;;19.66;52.89;100450.53;5035905;28;20033;-56
2022/11/08 10:48:42;;;;;;;2.25;1.35;;;;;;;19.68;53.26;100451.19;5019252;28;20028;-53
2022/11/08 10:51:07;;;;;;;3.75;1.27;;;;;;;19.67;52.87;100453.06;5036869;28;20099;-53
2022/11/08 10:53:33;;;;;;;1.10;0.88;;;;;;;19.73;52.74;100446.09;5018418;28;20116;-53
2022/11/08 10:56:04;;;;;;;3.65;1.25;;;;;;;19.77;53.12;100470.84;5037338;28;20108;-50
2022/11/08 10:58:35;;;;;;;3.15;1.23;;;;;;;19.80;52.81;100478.56;5037093;28;20032;-53
2022/11/08 11:01:01;;;;;;;2.00;1.25;;;;;;;19.81;52.72;100472.97;5012631;28;20394;-60
2022/11/08 11:03:29;;;;;;;1.63;1.10;;;;;;;19.81;52.81;100458.66;5031230;28;20033;-60
2022/11/08 11:06:05;;;;;;;2.45;1.10;;;;;;;19.81;52.63;100459.47;5036654;28;20025;-60
2022/11/08 11:08:31;;;;;;;2.33;1.40;;;;;;;19.81;52.41;100466.75;5029198;28;20030;-60
2022/11/08 11:11:21;;;;;;;1.85;1.05;;;;;;;19.79;52.42;100461.50;5032196;28;20025;-60
2022/11/08 11:14:03;;;;;;;1.17;0.95;;;;;;;19.82;52.67;100449.53;5029271;28;20099;-61
2022/11/08 11:16:29;;;;;;;1.40;1.00;;;;;;;19.82;52.52;100453.06;5035062;28;20117;-59
2022/11/08 11:18:58;;;;;;;1.58;1.08;;;;;;;19.77;52.52;100435.75;5042764;22;20056;-62
2022/11/08 11:21:23;;;;;;;4.13;1.13;;;;;;;19.80;52.68;100463.22;5233902;22;20506;-59
2022/11/08 11:24:06;;;;;;;2.38;1.10;;;;;;;19.73;52.66;100433.44;5708679;22;20011;-61
2022/11/08 11:26:33;;;;;;;2.33;1.00;;;;;;;19.79;52.44;100439.09;5054944;28;20025;-62
2022/11/08 11:29:01;;;;;;;1.90;1.00;;;;;;;19.78;52.62;100440.13;4969606;28;20100;-62
2022/11/08 11:31:26;;;;;;;2.85;1.10;;;;;;;19.73;52.48;100419.94;5063042;28;20039;-61
2022/11/08 11:33:52;;;;;;;3.00;0.98;;;;;;;19.76;52.42;100426.84;5061951;28;20036;-62
2022/11/08 11:36:21;;;;;;;2.72;1.25;;;;;;;19.76;52.51;100440.31;5063489;28;20062;-62
2022/11/08 11:39:13;;;;;;;2.42;1.60;;;;;;;19.78;52.43;100426.63;5063017;28;20051;-61
2022/11/08 11:41:48;;;;;;;5.13;1.27;;;;;;;19.78;52.32;100422.06;5058333;28;20033;-59
2022/11/08 11:49:44;;;;;;;1.40;1.17;;;;;;;19.87;52.54;100418.25;5111187;22;20046;-60
2022/11/08 11:52:17;;;;;;;1.77;1.10;;;;;;;19.89;52.92;100402.75;5039550;28;20060;-59